Time,TemperatureF,DewpointF,PressureIn,WindDirection,WindDirectionDegrees,WindSpeedMPH,WindSpeedGustMPH,Humidity,HourlyPrecipIn,Conditions,Clouds,dailyrainin,SolarRadiationWatts/m^2,SoftwareType,DateUTC
2013-04-03 00:00:00,17.2,12.1,29.78,NW,326,4.0,4.0,80,0.00,-SN,FEW,0.00,0.0,WeatherDisplay:10.37,2013-04-03 04:00:00,
2013-04-03 00:01:00,17.2,12.1,29.78,NW,326,4.0,4.0,80,0.00,-SN,FEW,0.00,0.0,WeatherDisplay:10.37,2013-04-03 04:01:00,
2013-04-03 00:02:00,17.2,12.1,29.79,ENE,69,2.3,2.3,80,0.00,-SN,FEW,0.00,0.0,WeatherDisplay:10.37,2013-04-03 04:02:00,
2013-04-03 00:03:00,17.2,12.4,29.79,NE,42,5.8,5.8,81,0.00,-SN,FEW,0.00,0.0,WeatherDisplay:10.37,2013-04-03 04:03:00,
2013-04-03 00:08:00,17.2,11.8,29.79,South,183,6.9,6.9,79,0.00,-SN,FEW,0.00,0.0,WeatherDisplay:10.37,2013-04-03 04:08:00,
2013-04-03 00:13:00,17.2,11.8,29.79,NW,317,5.0,5.0,79,0.00,-SN,FEW,0.00,0.0,WeatherDisplay:10.37,2013-04-03 04:13:00,
2013-04-03 00:19:00,17.2,11.8,29.79,ESE,115,19.6,19.6,79,0.00,-SN,FEW,0.00,0.0,WeatherDisplay:10.37,2013-04-03 04:19:00,
2013-04-03 00:24:00,17.2,11.8,29.79,WSW,248,2.3,2.3,79,0.00,-SN,FEW,0.00,0.0,WeatherDisplay:10.37,2013-04-03 04:24:00,
2013-04-03 00:29:00,17.2,12.4,29.79,NW,319,8.0,8.0,81,0.00,-SN,FEW,0.00,0.0,WeatherDisplay:10.37,2013-04-03 04:29:00,
2013-04-03 00:34:00,17.1,12.0,29.79,North,355,7.0,7.0,80,0.00,-SN,FEW,0.00,0.0,WeatherDisplay:10.37,2013-04-03 04:34:00,
2013-04-03 00:39:00,17.1,12.3,29.79,ENE,64,1.2,1.2,81,0.00,-SN,FEW,0.00,0.0,WeatherDisplay:10.37,2013-04-03 04:39:00,
2013-04-03 00:44:00,17.0,12.5,29.79,NW,306,3.5,3.5,82,0.00,-SN,FEW,0.00,0.0,WeatherDisplay:10.37,2013-04-03 04:44:00,
2013-04-03 00:49:00,16.9,11.8,29.79,SE,126,3.5,3.5,80,0.00,-SN,FEW,0.00,0.0,WeatherDisplay:10.37,2013-04-03 04:49:00,
2013-04-03 00:54:00,16.9,11.8,29.79,NW,308,3.5,3.5,80,0.00,-SN,FEW,0.00,0.0,WeatherDisplay:10.37,2013-04-03 04:54:00,
2013-04-03 00:59:00,16.8,12.0,29.79,NNE,19,7.0,7.0,81,0.00,-SN,FEW,0.00,0.0,WeatherDisplay:10.37,2013-04-03 04:59:00,
2013-04-03 01:04:00,16.6,12.1,29.80,NNE,17,5.0,5.0,82,0.00,OVC,FEW,0.00,0.0,WeatherDisplay:10.37,2013-04-03 05:04:00,
2013-04-03 01:09:00,16.5,12.2,29.79,West,276,2.3,2.3,83,0.00,OVC,FEW,0.00,0.0,WeatherDisplay:10.37,2013-04-03 05:09:00,
2013-04-03 01:14:00,16.4,12.1,29.79,West,260,4.0,4.0,83,0.00,OVC,FEW,0.00,0.0,WeatherDisplay:10.37,2013-04-03 05:14:00,
2013-04-03 01:19:00,16.3,12.3,29.80,NW,317,12.0,12.0,84,0.00,OVC,FEW,0.00,0.0,WeatherDisplay:10.37,2013-04-03 05:19:00,
2013-04-03 01:24:00,16.2,12.5,29.79,WNW,293,7.0,7.0,85,0.00,OVC,FEW,0.00,0.0,WeatherDisplay:10.37,2013-04-03 05:24:00,
2013-04-03 02:06:00,15.6,12.7,29.80,NE,47,1.2,1.2,88,0.00,OVC,FEW,0.00,0.0,WeatherDisplay:10.37,2013-04-03 06:06:00,
2013-04-03 02:28:00,15.7,12.8,29.80,SSW,197,2.3,2.3,88,0.00,OVC,FEW,0.00,0.0,WeatherDisplay:10.37,2013-04-03 06:28:00,
2013-04-03 02:33:00,15.7,12.8,29.79,WSW,240,2.3,2.3,88,0.00,OVC,FEW,0.00,0.0,WeatherDisplay:10.37,2013-04-03 06:33:00,
2013-04-03 02:38:00,15.7,12.8,29.79,West,267,4.0,4.0,88,0.00,OVC,FEW,0.00,0.0,WeatherDisplay:10.37,2013-04-03 06:38:00,
2013-04-03 02:43:00,15.7,12.8,29.79,ESE,117,3.5,3.5,88,0.00,OVC,FEW,0.00,0.0,WeatherDisplay:10.37,2013-04-03 06:43:00,
2013-04-03 02:48:00,15.7,12.8,29.79,ENE,60,6.9,6.9,88,0.00,OVC,FEW,0.00,0.0,WeatherDisplay:10.37,2013-04-03 06:48:00,
2013-04-03 02:53:00,15.6,12.7,29.79,NW,312,8.1,8.1,88,0.00,OVC,FEW,0.00,0.0,WeatherDisplay:10.37,2013-04-03 06:53:00,
2013-04-03 02:58:00,15.5,12.6,29.79,ESE,102,4.6,4.6,88,0.00,OVC,FEW,0.00,0.0,WeatherDisplay:10.37,2013-04-03 06:58:00,
2013-04-03 03:03:00,15.4,12.5,29.79,North,355,3.5,3.5,88,0.00,BKN,FEW,0.00,0.0,WeatherDisplay:10.37,2013-04-03 07:03:00,
2013-04-03 03:08:00,15.4,12.5,29.79,NNE,19,2.3,2.3,88,0.00,BKN,FEW,0.00,0.0,WeatherDisplay:10.37,2013-04-03 07:08:00,
2013-04-03 03:13:00,15.4,12.7,29.79,NNE,19,10.4,10.4,89,0.00,BKN,FEW,0.00,0.0,WeatherDisplay:10.37,2013-04-03 07:13:00,
2013-04-03 03:18:00,15.5,12.8,29.79,NW,326,1.2,1.2,89,0.00,BKN,FEW,0.00,0.0,WeatherDisplay:10.37,2013-04-03 07:18:00,
2013-04-03 03:23:00,15.5,12.8,29.79,South,184,4.0,4.0,89,0.00,BKN,FEW,0.00,0.0,WeatherDisplay:10.37,2013-04-03 07:23:00,
2013-04-03 03:28:00,15.5,13.1,29.79,WSW,248,1.2,0.0,90,0.00,BKN,FEW,0.00,0.0,WeatherDisplay:10.37,2013-04-03 07:28:00,
2013-04-03 03:33:00,15.5,13.1,29.79,SW,227,3.5,3.5,90,0.00,BKN,FEW,0.00,0.0,WeatherDisplay:10.37,2013-04-03 07:33:00,
2013-04-03 03:39:00,15.5,13.1,29.79,NNE,32,10.4,10.4,90,0.00,BKN,FEW,0.00,0.0,WeatherDisplay:10.37,2013-04-03 07:39:00,
2013-04-03 03:44:00,15.5,13.1,29.79,SSW,194,3.0,3.0,90,0.00,BKN,FEW,0.00,0.0,WeatherDisplay:10.37,2013-04-03 07:44:00,
2013-04-03 03:49:00,15.5,13.1,29.78,WSW,242,8.1,8.1,90,0.00,BKN,FEW,0.00,0.0,WeatherDisplay:10.37,2013-04-03 07:49:00,
2013-04-03 03:54:00,15.5,13.1,29.78,ENE,78,1.0,0.0,90,0.00,BKN,FEW,0.00,0.0,WeatherDisplay:10.37,2013-04-03 07:54:00,
2013-04-03 03:59:00,15.5,13.1,29.79,WSW,245,2.3,2.3,90,0.00,BKN,FEW,0.00,0.0,WeatherDisplay:10.37,2013-04-03 07:59:00,
2013-04-03 04:04:00,15.5,13.1,29.79,WSW,252,1.2,0.0,90,0.00,OVC,FEW,0.00,0.0,WeatherDisplay:10.37,2013-04-03 08:04:00,
2013-04-03 04:09:00,15.5,13.1,29.79,South,183,9.0,9.0,90,0.00,OVC,FEW,0.00,0.0,WeatherDisplay:10.37,2013-04-03 08:09:00,
2013-04-03 04:14:00,15.5,13.1,29.79,NE,50,3.5,3.5,90,0.00,OVC,FEW,0.00,0.0,WeatherDisplay:10.37,2013-04-03 08:14:00,
2013-04-03 04:19:00,15.4,13.0,29.79,WNW,284,5.8,5.8,90,0.00,OVC,FEW,0.00,0.0,WeatherDisplay:10.37,2013-04-03 08:19:00,
2013-04-03 04:24:00,15.4,13.0,29.79,ENE,75,4.6,4.6,90,0.00,OVC,FEW,0.00,0.0,WeatherDisplay:10.37,2013-04-03 08:24:00,
2013-04-03 04:29:00,15.4,13.0,29.79,NE,43,3.5,3.5,90,0.00,OVC,FEW,0.00,0.0,WeatherDisplay:10.37,2013-04-03 08:29:00,
2013-04-03 04:34:00,15.4,13.0,29.79,NNW,346,2.0,2.0,90,0.00,OVC,FEW,0.00,0.0,WeatherDisplay:10.37,2013-04-03 08:34:00,
2013-04-03 04:39:00,15.3,12.9,29.79,NNW,338,7.0,7.0,90,0.00,OVC,FEW,0.00,0.0,WeatherDisplay:10.37,2013-04-03 08:39:00,
2013-04-03 04:44:00,15.2,12.8,29.79,NE,46,1.2,1.2,90,0.00,OVC,FEW,0.00,0.0,WeatherDisplay:10.37,2013-04-03 08:44:00,
2013-04-03 04:49:00,15.2,12.8,29.79,SSW,210,4.0,4.0,90,0.00,OVC,FEW,0.00,0.0,WeatherDisplay:10.37,2013-04-03 08:49:00,
2013-04-03 04:54:00,15.1,12.4,29.79,SSW,202,2.3,2.3,89,0.00,OVC,FEW,0.00,0.0,WeatherDisplay:10.37,2013-04-03 08:54:00,
2013-04-03 04:59:00,15.2,12.5,29.80,SW,233,1.2,1.2,89,0.00,OVC,FEW,0.00,0.0,WeatherDisplay:10.37,2013-04-03 08:59:00,
2013-04-03 05:04:00,15.1,12.4,29.80,SW,221,3.5,0.0,89,0.00,OVC,FEW,0.00,0.0,WeatherDisplay:10.37,2013-04-03 09:04:00,
2013-04-03 05:09:00,15.2,12.3,29.80,WSW,254,0.0,0.0,88,0.00,OVC,FEW,0.00,0.0,WeatherDisplay:10.37,2013-04-03 09:09:00,
2013-04-03 05:14:00,15.2,12.3,29.80,WSW,257,1.2,0.0,88,0.00,OVC,FEW,0.00,0.0,WeatherDisplay:10.37,2013-04-03 09:14:00,
2013-04-03 05:19:00,15.1,11.9,29.80,West,278,3.0,3.0,87,0.00,OVC,FEW,0.00,0.0,WeatherDisplay:10.37,2013-04-03 09:19:00,
2013-04-03 05:24:00,15.1,11.9,29.80,SSE,160,2.3,2.3,87,0.00,OVC,FEW,0.00,0.0,WeatherDisplay:10.37,2013-04-03 09:24:00,
2013-04-03 05:29:00,15.1,11.7,29.80,SSE,155,4.0,4.0,86,0.00,OVC,FEW,0.00,0.0,WeatherDisplay:10.37,2013-04-03 09:29:00,
2013-04-03 05:34:00,15.1,11.7,29.80,ENE,59,3.0,3.0,86,0.00,OVC,FEW,0.00,0.0,WeatherDisplay:10.37,2013-04-03 09:34:00,
2013-04-03 05:39:00,15.0,11.6,29.80,ENE,62,9.0,9.0,86,0.00,OVC,FEW,0.00,0.0,WeatherDisplay:10.37,2013-04-03 09:39:00,
2013-04-03 05:44:00,15.0,10.8,29.81,SW,232,6.0,6.0,83,0.00,OVC,FEW,0.00,0.0,WeatherDisplay:10.37,2013-04-03 09:44:00,
2013-04-03 05:49:00,14.9,10.7,29.81,WNW,284,9.2,9.2,83,0.00,OVC,FEW,0.00,0.0,WeatherDisplay:10.37,2013-04-03 09:49:00,
2013-04-03 05:54:00,14.8,10.3,29.80,SSE,162,6.0,6.0,82,0.00,OVC,FEW,0.00,0.0,WeatherDisplay:10.37,2013-04-03 09:54:00,
2013-04-03 05:59:00,14.7,9.9,29.81,SSW,198,3.5,3.5,81,0.00,OVC,FEW,0.00,0.0,WeatherDisplay:10.37,2013-04-03 09:59:00,
2013-04-03 06:04:00,14.5,9.7,29.81,WSW,238,6.0,6.0,81,0.00,OVC,FEW,0.00,0.0,WeatherDisplay:10.37,2013-04-03 10:04:00,
2013-04-03 06:09:00,14.4,9.6,29.81,WSW,243,5.0,5.0,81,0.00,OVC,FEW,0.00,0.0,WeatherDisplay:10.37,2013-04-03 10:09:00,
2013-04-03 06:14:00,14.3,9.5,29.81,WSW,250,0.0,0.0,81,0.00,OVC,FEW,0.00,0.0,WeatherDisplay:10.37,2013-04-03 10:14:00,
2013-04-03 06:19:00,14.2,9.2,29.81,SSE,148,3.5,3.5,80,0.00,OVC,FEW,0.00,0.0,WeatherDisplay:10.37,2013-04-03 10:19:00,
2013-04-03 06:24:00,14.0,9.2,29.81,WNW,302,3.5,3.5,81,0.00,OVC,FEW,0.00,0.0,WeatherDisplay:10.37,2013-04-03 10:24:00,
2013-04-03 06:29:00,13.9,9.1,29.82,South,181,5.0,5.0,81,0.00,OVC,FEW,0.00,0.0,WeatherDisplay:10.37,2013-04-03 10:29:00,
2013-04-03 06:34:00,13.9,8.9,29.82,SE,146,3.5,3.5,80,0.00,OVC,FEW,0.00,0.0,WeatherDisplay:10.37,2013-04-03 10:34:00,
2013-04-03 06:39:00,13.9,8.9,29.82,SSW,205,3.5,3.5,80,0.00,OVC,FEW,0.00,5.0,WeatherDisplay:10.37,2013-04-03 10:39:00,
2013-04-03 06:44:00,14.0,9.0,29.83,ENE,72,3.0,3.0,80,0.00,OVC,FEW,0.00,5.0,WeatherDisplay:10.37,2013-04-03 10:44:00,
2013-04-03 06:49:00,14.0,9.0,29.83,WSW,252,6.0,6.0,80,0.00,OVC,FEW,0.00,5.0,WeatherDisplay:10.37,2013-04-03 10:49:00,
2013-04-03 06:54:00,14.1,8.8,29.83,ESE,111,1.2,0.0,79,0.00,OVC,FEW,0.00,7.0,WeatherDisplay:10.37,2013-04-03 10:54:00,
2013-04-03 06:59:00,14.2,8.9,29.83,NNW,338,6.0,6.0,79,0.00,OVC,FEW,0.00,12.0,WeatherDisplay:10.37,2013-04-03 10:59:00,
2013-04-03 07:04:00,14.2,8.9,29.83,SSE,153,4.0,4.0,79,0.00,OVC,FEW,0.00,12.0,WeatherDisplay:10.37,2013-04-03 11:04:00,
2013-04-03 07:09:00,14.4,9.1,29.84,SW,224,4.0,4.0,79,0.00,OVC,FEW,0.00,18.0,WeatherDisplay:10.37,2013-04-03 11:09:00,
2013-04-03 07:14:00,14.6,9.3,29.84,WSW,253,5.8,5.8,79,0.00,OVC,FEW,0.00,23.0,WeatherDisplay:10.37,2013-04-03 11:14:00,
2013-04-03 07:19:00,14.8,9.5,29.84,NE,46,4.0,4.0,79,0.00,OVC,FEW,0.00,25.0,WeatherDisplay:10.37,2013-04-03 11:19:00,
2013-04-03 07:24:00,15.0,9.7,29.84,NW,325,7.0,7.0,79,0.00,OVC,FEW,0.00,28.0,WeatherDisplay:10.37,2013-04-03 11:24:00,
2013-04-03 07:30:00,15.2,9.9,29.84,SSW,213,17.3,17.3,79,0.00,OVC,FEW,0.00,21.0,WeatherDisplay:10.37,2013-04-03 11:30:00,
2013-04-03 07:35:00,15.1,9.8,29.84,WSW,248,9.2,9.2,79,0.00,OVC,FEW,0.00,14.0,WeatherDisplay:10.37,2013-04-03 11:35:00,
2013-04-03 07:40:00,15.1,9.8,29.85,NW,313,6.0,6.0,79,0.00,OVC,FEW,0.00,19.0,WeatherDisplay:10.37,2013-04-03 11:40:00,
2013-04-03 07:45:00,15.1,9.8,29.84,SSE,163,1.2,0.0,79,0.00,OVC,FEW,0.00,28.0,WeatherDisplay:10.37,2013-04-03 11:45:00,
2013-04-03 07:50:00,15.2,9.9,29.84,SSW,196,5.8,5.8,79,0.00,OVC,FEW,0.00,26.0,WeatherDisplay:10.37,2013-04-03 11:50:00,
2013-04-03 07:55:00,15.2,10.1,29.85,SSW,212,4.6,4.6,80,0.00,OVC,FEW,0.00,30.0,WeatherDisplay:10.37,2013-04-03 11:55:00,
2013-04-03 08:00:00,15.3,10.0,29.84,NNW,342,4.0,4.0,79,0.00,OVC,FEW,0.00,28.0,WeatherDisplay:10.37,2013-04-03 12:00:00,
2013-04-03 08:05:00,15.3,10.0,29.85,NE,54,6.0,6.0,79,0.00,BKN,FEW,0.00,35.0,WeatherDisplay:10.37,2013-04-03 12:05:00,
2013-04-03 08:10:00,15.3,9.7,29.85,ENE,66,16.1,16.1,78,0.00,BKN,FEW,0.00,35.0,WeatherDisplay:10.37,2013-04-03 12:10:00,
2013-04-03 08:15:00,15.4,10.3,29.85,NW,314,7.0,7.0,80,0.00,BKN,FEW,0.00,44.0,WeatherDisplay:10.37,2013-04-03 12:15:00,
2013-04-03 08:20:00,15.5,10.1,29.85,SSW,203,7.0,7.0,79,0.00,BKN,FEW,0.00,46.0,WeatherDisplay:10.37,2013-04-03 12:20:00,
2013-04-03 08:25:00,15.6,10.2,29.85,East,87,3.5,3.5,79,0.00,BKN,FEW,0.00,63.0,WeatherDisplay:10.37,2013-04-03 12:25:00,
2013-04-03 08:30:00,15.8,10.2,29.85,North,9,4.0,4.0,78,0.00,BKN,FEW,0.00,74.0,WeatherDisplay:10.37,2013-04-03 12:30:00,
2013-04-03 08:35:00,16.0,10.9,29.85,NW,306,6.0,6.0,80,0.00,BKN,FEW,0.00,69.0,WeatherDisplay:10.37,2013-04-03 12:35:00,
2013-04-03 08:40:00,16.0,10.6,29.86,SSE,167,5.0,5.0,79,0.00,BKN,FEW,0.00,84.0,WeatherDisplay:10.37,2013-04-03 12:40:00,
2013-04-03 08:45:00,16.2,10.8,29.86,West,261,6.0,6.0,79,0.00,BKN,FEW,0.00,79.0,WeatherDisplay:10.37,2013-04-03 12:45:00,
2013-04-03 08:50:00,16.5,11.4,29.86,WSW,238,3.5,3.5,80,0.00,BKN,FEW,0.00,88.0,WeatherDisplay:10.37,2013-04-03 12:50:00,
2013-04-03 08:55:00,16.7,11.3,29.86,SE,141,3.5,3.5,79,0.00,BKN,FEW,0.00,90.0,WeatherDisplay:10.37,2013-04-03 12:55:00,
2013-04-03 09:00:00,17.0,11.9,29.85,WSW,257,9.0,9.0,80,0.00,BKN,FEW,0.00,137.0,WeatherDisplay:10.37,2013-04-03 13:00:00,
2013-04-03 09:05:00,17.1,11.4,29.86,East,94,10.4,10.4,78,0.00,OVC,FEW,0.00,95.0,WeatherDisplay:10.37,2013-04-03 13:05:00,
2013-04-03 09:16:00,17.1,11.4,29.85,NNE,31,5.8,5.8,78,0.00,OVC,FEW,0.00,104.0,WeatherDisplay:10.37,2013-04-03 13:16:00,
2013-04-03 09:22:00,17.2,11.5,29.86,SSW,209,5.8,5.8,78,0.00,OVC,FEW,0.00,100.0,WeatherDisplay:10.37,2013-04-03 13:22:00,
2013-04-03 09:27:00,17.2,11.2,29.86,SSW,196,3.5,3.5,77,0.00,OVC,FEW,0.00,105.0,WeatherDisplay:10.37,2013-04-03 13:27:00,
2013-04-03 09:32:00,17.4,11.7,29.86,WSW,243,7.0,7.0,78,0.00,OVC,FEW,0.00,97.0,WeatherDisplay:10.37,2013-04-03 13:32:00,
2013-04-03 09:37:00,17.5,11.5,29.86,NNW,340,5.8,5.8,77,0.00,OVC,FEW,0.00,118.0,WeatherDisplay:10.37,2013-04-03 13:37:00,
2013-04-03 09:43:00,17.8,11.8,29.87,SSE,168,6.9,6.9,77,0.00,OVC,FEW,0.00,369.0,WeatherDisplay:10.37,2013-04-03 13:43:00,
2013-04-03 09:48:00,18.0,12.6,29.86,North,355,17.0,17.0,79,0.00,OVC,FEW,0.00,517.0,WeatherDisplay:10.37,2013-04-03 13:48:00,
2013-04-03 09:53:00,18.4,11.8,29.86,NE,34,13.0,13.0,75,0.00,OVC,FEW,0.00,578.0,WeatherDisplay:10.37,2013-04-03 13:53:00,
2013-04-03 09:58:00,18.5,11.9,29.86,NW,313,11.0,11.0,75,0.00,OVC,FEW,0.00,355.0,WeatherDisplay:10.37,2013-04-03 13:58:00,
2013-04-03 10:03:00,18.7,12.4,29.86,South,170,4.0,4.0,76,0.00,FEW,,0.00,404.0,WeatherDisplay:10.37,2013-04-03 14:03:00,
2013-04-03 10:08:00,18.8,12.8,29.86,NNE,15,3.5,3.5,77,0.00,FEW,,0.00,330.0,WeatherDisplay:10.37,2013-04-03 14:08:00,
2013-04-03 10:13:00,19.0,12.1,29.86,North,355,4.0,4.0,74,0.00,FEW,,0.00,309.0,WeatherDisplay:10.37,2013-04-03 14:13:00,
2013-04-03 10:18:00,19.2,12.3,29.86,SW,227,7.0,7.0,74,0.00,FEW,,0.00,348.0,WeatherDisplay:10.37,2013-04-03 14:18:00,
2013-04-03 10:23:00,19.1,12.5,29.87,ENE,71,7.0,7.0,75,0.00,FEW,,0.00,418.0,WeatherDisplay:10.37,2013-04-03 14:23:00,
2013-04-03 10:28:00,18.8,12.2,29.86,North,360,6.0,6.0,75,0.00,FEW,,0.00,355.0,WeatherDisplay:10.37,2013-04-03 14:28:00,
2013-04-03 10:33:00,18.9,12.6,29.86,SW,219,5.0,5.0,76,0.00,FEW,,0.00,406.0,WeatherDisplay:10.37,2013-04-03 14:33:00,
2013-04-03 10:38:00,19.1,12.8,29.86,ENE,68,4.0,4.0,76,0.00,FEW,,0.00,413.0,WeatherDisplay:10.37,2013-04-03 14:38:00,
2013-04-03 10:43:00,18.9,12.0,29.86,SW,215,10.4,10.4,74,0.00,FEW,,0.00,420.0,WeatherDisplay:10.37,2013-04-03 14:43:00,
2013-04-03 10:48:00,18.9,12.3,29.86,South,184,9.2,9.2,75,0.00,FEW,,0.00,383.0,WeatherDisplay:10.37,2013-04-03 14:48:00,
2013-04-03 10:53:00,19.2,12.6,29.86,ENE,77,5.0,5.0,75,0.00,FEW,,0.00,311.0,WeatherDisplay:10.37,2013-04-03 14:53:00,
2013-04-03 10:58:00,19.7,12.8,29.86,NE,45,6.9,6.9,74,0.00,FEW,,0.00,554.0,WeatherDisplay:10.37,2013-04-03 14:58:00,
2013-04-03 11:03:00,20.3,13.6,29.87,SW,234,5.0,5.0,75,0.00,CLR,FEW,0.00,468.0,WeatherDisplay:10.37,2013-04-03 15:03:00,
2013-04-03 11:08:00,20.7,14.0,29.87,East,96,8.1,8.1,75,0.00,CLR,FEW,0.00,387.0,WeatherDisplay:10.37,2013-04-03 15:08:00,
2013-04-03 11:13:00,20.6,13.6,29.87,NE,36,6.0,6.0,74,0.00,CLR,FEW,0.00,459.0,WeatherDisplay:10.37,2013-04-03 15:13:00,
2013-04-03 11:18:00,20.3,14.2,29.86,NE,43,4.0,4.0,77,0.00,CLR,FEW,0.00,441.0,WeatherDisplay:10.37,2013-04-03 15:18:00,
2013-04-03 11:23:00,20.0,13.9,29.87,South,184,14.0,14.0,77,0.00,CLR,FEW,0.00,657.0,WeatherDisplay:10.37,2013-04-03 15:23:00,
2013-04-03 11:28:00,19.8,13.8,29.87,WNW,286,10.4,10.4,77,0.00,CLR,FEW,0.00,503.0,WeatherDisplay:10.37,2013-04-03 15:28:00,
2013-04-03 11:33:00,20.1,13.4,29.87,NW,322,9.0,9.0,75,0.00,CLR,FEW,0.00,677.0,WeatherDisplay:10.37,2013-04-03 15:33:00,
2013-04-03 11:38:00,20.5,13.5,29.86,SE,143,3.5,3.5,74,0.00,CLR,FEW,0.00,592.0,WeatherDisplay:10.37,2013-04-03 15:38:00,
2013-04-03 11:43:00,20.7,14.6,29.86,ESE,121,6.0,6.0,77,0.00,CLR,FEW,0.00,619.0,WeatherDisplay:10.37,2013-04-03 15:43:00,
2013-04-03 11:48:00,20.9,14.2,29.86,West,264,11.0,11.0,75,0.00,CLR,FEW,0.00,512.0,WeatherDisplay:10.37,2013-04-03 15:48:00,
2013-04-03 11:53:00,21.1,14.1,29.86,SSE,151,3.5,3.5,74,0.00,CLR,FEW,0.00,670.0,WeatherDisplay:10.37,2013-04-03 15:53:00,
2013-04-03 11:58:00,21.6,14.6,29.86,NW,306,6.0,6.0,74,0.00,CLR,FEW,0.00,659.0,WeatherDisplay:10.37,2013-04-03 15:58:00,
2013-04-03 12:03:00,22.1,15.4,29.87,ENE,72,3.5,3.5,75,0.00,CLR,FEW,0.00,589.0,WeatherDisplay:10.37,2013-04-03 16:03:00,
2013-04-03 12:09:00,22.5,15.1,29.87,South,173,4.0,4.0,73,0.00,CLR,FEW,0.00,480.0,WeatherDisplay:10.37,2013-04-03 16:09:00,
2013-04-03 12:14:00,22.0,15.0,29.87,WSW,239,11.5,11.5,74,0.00,CLR,FEW,0.00,366.0,WeatherDisplay:10.37,2013-04-03 16:14:00,
2013-04-03 12:19:00,21.9,14.9,29.87,SW,216,5.0,5.0,74,0.00,CLR,FEW,0.00,489.0,WeatherDisplay:10.37,2013-04-03 16:19:00,
2013-04-03 12:24:00,22.1,15.1,29.87,WSW,256,4.0,4.0,74,0.00,CLR,FEW,0.00,496.0,WeatherDisplay:10.37,2013-04-03 16:24:00,
2013-04-03 12:29:00,22.2,15.5,29.87,SSW,207,7.0,7.0,75,0.00,CLR,FEW,0.00,432.0,WeatherDisplay:10.37,2013-04-03 16:29:00,
2013-04-03 12:34:00,21.8,15.1,29.87,SE,125,6.0,6.0,75,0.00,CLR,FEW,0.00,606.0,WeatherDisplay:10.37,2013-04-03 16:34:00,
2013-04-03 12:39:00,22.1,15.4,29.87,WSW,240,4.6,4.6,75,0.00,CLR,FEW,0.00,599.0,WeatherDisplay:10.37,2013-04-03 16:39:00,
2013-04-03 12:45:00,22.6,15.2,29.88,South,191,19.6,19.6,73,0.00,CLR,FEW,0.00,647.0,WeatherDisplay:10.37,2013-04-03 16:45:00,
2013-04-03 12:50:00,22.8,14.8,29.88,NW,315,9.2,9.2,71,0.00,CLR,FEW,0.00,438.0,WeatherDisplay:10.37,2013-04-03 16:50:00,
2013-04-03 12:55:00,22.6,14.3,29.88,South,181,6.9,6.9,70,0.00,CLR,FEW,0.00,578.0,WeatherDisplay:10.37,2013-04-03 16:55:00,
2013-04-03 13:00:00,22.7,14.7,29.88,NNW,344,11.5,11.5,71,0.00,CLR,FEW,0.00,418.0,WeatherDisplay:10.37,2013-04-03 17:00:00,
2013-04-03 13:05:00,22.9,14.6,29.88,NW,318,11.5,11.5,70,0.00,CLR,FEW,0.00,415.0,WeatherDisplay:10.37,2013-04-03 17:05:00,
2013-04-03 13:10:00,23.0,15.0,29.88,WNW,298,6.9,6.9,71,0.00,CLR,FEW,0.00,522.0,WeatherDisplay:10.37,2013-04-03 17:10:00,
2013-04-03 13:15:00,23.0,15.0,29.88,WNW,303,14.0,14.0,71,0.00,CLR,FEW,0.00,383.0,WeatherDisplay:10.37,2013-04-03 17:15:00,
2013-04-03 13:20:00,22.8,14.8,29.89,WNW,297,12.0,12.0,71,0.00,CLR,FEW,0.00,510.0,WeatherDisplay:10.37,2013-04-03 17:20:00,
2013-04-03 13:25:00,22.6,14.9,29.89,SE,144,7.0,7.0,72,0.00,CLR,FEW,0.00,366.0,WeatherDisplay:10.37,2013-04-03 17:25:00,
2013-04-03 13:30:00,22.6,15.2,29.89,NNE,24,19.6,19.6,73,0.00,CLR,FEW,0.00,492.0,WeatherDisplay:10.37,2013-04-03 17:30:00,
2013-04-03 13:35:00,22.5,15.5,29.90,NE,45,4.6,4.6,74,0.00,CLR,FEW,0.00,429.0,WeatherDisplay:10.37,2013-04-03 17:35:00,
2013-04-03 13:40:00,22.6,15.6,29.90,South,190,3.5,3.5,74,0.01,RA,FEW,0.01,294.0,WeatherDisplay:10.37,2013-04-03 17:40:00,
2013-04-03 13:45:00,22.6,15.9,29.90,SSW,209,19.6,19.6,75,0.01,RA,FEW,0.01,366.0,WeatherDisplay:10.37,2013-04-03 17:45:00,
2013-04-03 13:50:00,22.4,15.1,29.90,South,169,9.2,9.2,73,0.01,CLR,FEW,0.01,380.0,WeatherDisplay:10.37,2013-04-03 17:50:00,
2013-04-03 13:56:00,22.3,15.0,29.90,SSE,154,19.0,19.0,73,0.01,CLR,FEW,0.01,290.0,WeatherDisplay:10.37,2013-04-03 17:56:00,
2013-04-03 14:02:00,22.3,15.0,29.90,WNW,300,12.0,12.0,73,0.01,CLR,FEW,0.01,329.0,WeatherDisplay:10.37,2013-04-03 18:02:00,
2013-04-03 14:07:00,22.4,15.4,29.91,SW,235,10.0,10.0,74,0.01,CLR,FEW,0.01,582.0,WeatherDisplay:10.37,2013-04-03 18:07:00,
2013-04-03 14:12:00,22.8,15.1,29.91,WNW,290,17.3,17.3,72,0.01,CLR,FEW,0.01,441.0,WeatherDisplay:10.37,2013-04-03 18:12:00,
2013-04-03 14:17:00,23.0,15.0,29.91,SW,221,4.0,4.0,71,0.01,CLR,FEW,0.01,352.0,WeatherDisplay:10.37,2013-04-03 18:17:00,
2013-04-03 14:22:00,23.1,15.7,29.91,WSW,242,12.0,12.0,73,0.01,CLR,FEW,0.01,332.0,WeatherDisplay:10.37,2013-04-03 18:22:00,
2013-04-03 14:27:00,23.1,15.4,29.91,NE,38,9.2,9.2,72,0.01,CLR,FEW,0.01,531.0,WeatherDisplay:10.37,2013-04-03 18:27:00,
2013-04-03 14:33:00,23.3,15.6,29.91,NE,55,4.0,4.0,72,0.01,CLR,FEW,0.01,323.0,WeatherDisplay:10.37,2013-04-03 18:33:00,
2013-04-03 14:38:00,23.2,15.2,29.91,South,187,7.0,7.0,71,0.00,CLR,FEW,0.01,281.0,WeatherDisplay:10.37,2013-04-03 18:38:00,
2013-04-03 14:43:00,23.0,15.0,29.91,North,5,7.0,7.0,71,0.00,CLR,FEW,0.01,236.0,WeatherDisplay:10.37,2013-04-03 18:43:00,
2013-04-03 14:48:00,23.0,15.0,29.91,SE,126,3.5,3.5,71,0.00,CLR,FEW,0.01,294.0,WeatherDisplay:10.37,2013-04-03 18:48:00,
2013-04-03 14:53:00,23.0,15.3,29.92,WNW,301,10.0,10.0,72,0.00,CLR,FEW,0.01,243.0,WeatherDisplay:10.37,2013-04-03 18:53:00,
2013-04-03 14:58:00,22.6,14.9,29.92,SW,221,4.0,4.0,72,0.00,CLR,FEW,0.01,257.0,WeatherDisplay:10.37,2013-04-03 18:58:00,
2013-04-03 15:03:00,22.7,15.3,29.92,North,350,4.6,4.6,73,0.00,CLR,FEW,0.01,214.0,WeatherDisplay:10.37,2013-04-03 19:03:00,
2013-04-03 15:08:00,22.9,15.8,29.93,SSE,147,1.2,1.2,74,0.00,CLR,FEW,0.01,257.0,WeatherDisplay:10.37,2013-04-03 19:08:00,
2013-04-03 15:13:00,23.1,15.7,29.93,NNW,330,13.8,13.8,73,0.00,CLR,FEW,0.01,227.0,WeatherDisplay:10.37,2013-04-03 19:13:00,
2013-04-03 15:18:00,23.0,15.9,29.93,WSW,256,10.4,10.4,74,0.00,CLR,FEW,0.01,223.0,WeatherDisplay:10.37,2013-04-03 19:18:00,
2013-04-03 15:23:00,22.9,15.2,29.93,SW,220,13.8,13.8,72,0.00,CLR,FEW,0.01,223.0,WeatherDisplay:10.37,2013-04-03 19:23:00,
2013-04-03 15:28:00,22.8,15.4,29.93,SW,218,5.8,5.8,73,0.00,CLR,FEW,0.01,230.0,WeatherDisplay:10.37,2013-04-03 19:28:00,
2013-04-03 15:33:00,22.8,14.8,29.93,SE,130,5.8,5.8,71,0.00,CLR,FEW,0.01,221.0,WeatherDisplay:10.37,2013-04-03 19:33:00,
2013-04-03 15:38:00,22.9,14.9,29.92,South,171,4.6,4.6,71,0.00,CLR,FEW,0.01,271.0,WeatherDisplay:10.37,2013-04-03 19:38:00,
2013-04-03 15:43:00,23.2,15.2,29.93,NNW,342,10.4,10.4,71,0.00,CLR,FEW,0.01,209.0,WeatherDisplay:10.37,2013-04-03 19:43:00,
2013-04-03 15:48:00,23.4,15.4,29.93,WSW,249,4.0,4.0,71,0.00,CLR,FEW,0.01,199.0,WeatherDisplay:10.37,2013-04-03 19:48:00,
2013-04-03 15:53:00,23.3,15.3,29.93,NNE,17,5.8,5.8,71,0.00,CLR,FEW,0.01,151.0,WeatherDisplay:10.37,2013-04-03 19:53:00,
2013-04-03 15:58:00,23.2,14.9,29.94,ENE,76,4.0,4.0,70,0.00,CLR,FEW,0.01,155.0,WeatherDisplay:10.37,2013-04-03 19:58:00,
2013-04-03 16:03:00,23.0,15.0,29.94,ESE,111,8.1,8.1,71,0.00,SCT,FEW,0.01,165.0,WeatherDisplay:10.37,2013-04-03 20:03:00,
2013-04-03 16:08:00,23.0,15.0,29.94,SSW,210,12.0,12.0,71,0.00,SCT,FEW,0.01,271.0,WeatherDisplay:10.37,2013-04-03 20:08:00,
2013-04-03 16:13:00,23.2,15.2,29.94,NW,322,14.0,14.0,71,0.00,SCT,FEW,0.01,262.0,WeatherDisplay:10.37,2013-04-03 20:13:00,
2013-04-03 16:18:00,23.3,15.3,29.94,SE,124,5.8,5.8,71,0.00,SCT,FEW,0.01,174.0,WeatherDisplay:10.37,2013-04-03 20:18:00,
2013-04-03 16:24:00,23.4,14.7,29.94,West,272,5.0,5.0,69,0.00,SCT,FEW,0.01,162.0,WeatherDisplay:10.37,2013-04-03 20:24:00,
2013-04-03 16:29:00,23.5,15.1,29.94,ENE,61,3.5,3.5,70,0.00,SCT,FEW,0.01,155.0,WeatherDisplay:10.37,2013-04-03 20:29:00,
2013-04-03 16:34:00,23.5,15.1,29.94,WSW,252,3.5,3.5,70,0.00,SCT,FEW,0.01,141.0,WeatherDisplay:10.37,2013-04-03 20:34:00,
2013-04-03 16:39:00,23.4,15.7,29.94,NE,43,7.0,7.0,72,0.00,SCT,FEW,0.01,135.0,WeatherDisplay:10.37,2013-04-03 20:39:00,
2013-04-03 16:44:00,23.3,15.6,29.95,SSW,205,4.0,4.0,72,0.00,SCT,FEW,0.01,141.0,WeatherDisplay:10.37,2013-04-03 20:44:00,
2013-04-03 16:50:00,23.0,15.3,29.95,NNW,338,8.1,8.1,72,0.00,SCT,FEW,0.01,151.0,WeatherDisplay:10.37,2013-04-03 20:50:00,
2013-04-03 16:55:00,22.9,15.2,29.95,NNE,26,4.6,4.6,72,0.00,SCT,FEW,0.01,109.0,WeatherDisplay:10.37,2013-04-03 20:55:00,
2013-04-03 17:00:00,22.9,15.5,29.96,SSE,153,6.0,6.0,73,0.00,SCT,FEW,0.01,93.0,WeatherDisplay:10.37,2013-04-03 21:00:00,
2013-04-03 17:05:00,22.8,15.4,29.96,West,263,6.0,6.0,73,0.00,OVC,FEW,0.01,98.0,WeatherDisplay:10.37,2013-04-03 21:05:00,
2013-04-03 17:10:00,22.8,15.4,29.96,NE,49,11.5,11.5,73,0.00,OVC,FEW,0.01,104.0,WeatherDisplay:10.37,2013-04-03 21:10:00,
2013-04-03 17:15:00,22.8,15.4,29.96,SSE,148,4.6,4.6,73,0.00,OVC,FEW,0.01,91.0,WeatherDisplay:10.37,2013-04-03 21:15:00,
2013-04-03 17:20:00,22.8,15.4,29.96,West,262,5.0,5.0,73,0.00,OVC,FEW,0.01,93.0,WeatherDisplay:10.37,2013-04-03 21:20:00,
2013-04-03 17:25:00,22.9,15.8,29.96,ESE,107,3.5,3.5,74,0.00,OVC,FEW,0.01,104.0,WeatherDisplay:10.37,2013-04-03 21:25:00,
2013-04-03 17:30:00,23.0,15.3,29.96,ESE,115,5.0,5.0,72,0.00,OVC,FEW,0.01,121.0,WeatherDisplay:10.37,2013-04-03 21:30:00,
2013-04-03 17:35:00,23.1,15.4,29.96,WNW,290,11.5,11.5,72,0.00,OVC,FEW,0.01,114.0,WeatherDisplay:10.37,2013-04-03 21:35:00,
2013-04-03 17:40:00,23.0,15.3,29.96,SW,234,4.6,4.6,72,0.00,OVC,FEW,0.01,100.0,WeatherDisplay:10.37,2013-04-03 21:40:00,
2013-04-03 17:45:00,23.2,15.8,29.97,West,279,3.0,3.0,73,0.00,OVC,FEW,0.01,109.0,WeatherDisplay:10.37,2013-04-03 21:45:00,
2013-04-03 17:50:00,23.2,15.2,29.97,WSW,242,4.0,4.0,71,0.00,OVC,FEW,0.01,88.0,WeatherDisplay:10.37,2013-04-03 21:50:00,
2013-04-03 17:55:00,23.3,15.6,29.97,North,360,8.1,8.1,72,0.00,OVC,FEW,0.01,95.0,WeatherDisplay:10.37,2013-04-03 21:55:00,
2013-04-03 18:00:00,23.4,15.7,29.97,North,350,3.5,3.5,72,0.00,OVC,FEW,0.01,98.0,WeatherDisplay:10.37,2013-04-03 22:00:00,
2013-04-03 18:05:00,23.4,15.7,29.98,South,180,3.5,3.5,72,0.00,SCT,FEW,0.01,76.0,WeatherDisplay:10.37,2013-04-03 22:05:00,
2013-04-03 18:10:00,23.3,15.6,29.98,SSE,147,5.8,5.8,72,0.00,SCT,FEW,0.01,56.0,WeatherDisplay:10.37,2013-04-03 22:10:00,
2013-04-03 18:15:00,23.1,15.1,29.98,NNE,22,13.0,13.0,71,0.00,SCT,FEW,0.01,47.0,WeatherDisplay:10.37,2013-04-03 22:15:00,
2013-04-03 18:20:00,22.9,15.5,29.97,NNE,30,5.0,5.0,73,0.00,SCT,FEW,0.01,46.0,WeatherDisplay:10.37,2013-04-03 22:20:00,
2013-04-03 18:25:00,22.9,15.8,29.98,East,96,9.2,9.2,74,0.00,SCT,FEW,0.01,40.0,WeatherDisplay:10.37,2013-04-03 22:25:00,
2013-04-03 18:30:00,22.9,15.2,29.98,SW,223,4.0,4.0,72,0.00,SCT,FEW,0.01,40.0,WeatherDisplay:10.37,2013-04-03 22:30:00,
2013-04-03 18:35:00,22.9,15.5,29.98,NW,311,5.0,5.0,73,0.00,SCT,FEW,0.01,30.0,WeatherDisplay:10.37,2013-04-03 22:35:00,
2013-04-03 18:40:00,22.9,15.2,29.98,South,189,9.2,9.2,72,0.00,SCT,FEW,0.01,28.0,WeatherDisplay:10.37,2013-04-03 22:40:00,
2013-04-03 18:45:00,22.9,14.9,29.98,SW,221,21.0,21.0,71,0.00,SCT,FEW,0.01,26.0,WeatherDisplay:10.37,2013-04-03 22:45:00,
2013-04-03 18:50:00,22.8,15.4,29.99,WNW,297,14.0,14.0,73,0.00,SCT,FEW,0.01,19.0,WeatherDisplay:10.37,2013-04-03 22:50:00,
2013-04-03 18:55:00,22.8,14.5,29.99,SSE,153,11.5,11.5,70,0.00,SCT,FEW,0.01,14.0,WeatherDisplay:10.37,2013-04-03 22:55:00,
2013-04-03 19:00:00,22.7,14.7,30.00,SSW,208,3.5,3.5,71,0.00,SCT,FEW,0.01,11.0,WeatherDisplay:10.37,2013-04-03 23:00:00,
2013-04-03 19:05:00,22.7,15.0,30.00,NNW,344,8.1,8.1,72,0.00,CLR,FEW,0.01,7.0,WeatherDisplay:10.37,2013-04-03 23:05:00,
2013-04-03 19:10:00,22.6,14.9,30.00,West,280,10.4,10.4,72,0.00,CLR,FEW,0.01,0.0,WeatherDisplay:10.37,2013-04-03 23:10:00,
2013-04-03 19:15:00,22.6,15.2,30.00,NE,44,5.0,5.0,73,0.00,CLR,FEW,0.01,0.0,WeatherDisplay:10.37,2013-04-03 23:15:00,
2013-04-03 19:20:00,22.6,15.2,30.00,ESE,119,5.0,5.0,73,0.00,CLR,FEW,0.01,0.0,WeatherDisplay:10.37,2013-04-03 23:20:00,
2013-04-03 19:25:00,22.6,14.9,30.00,North,9,11.0,11.0,72,0.00,CLR,FEW,0.01,0.0,WeatherDisplay:10.37,2013-04-03 23:25:00,
2013-04-03 19:31:00,22.6,15.2,30.00,East,90,6.0,6.0,73,0.00,CLR,FEW,0.01,0.0,WeatherDisplay:10.37,2013-04-03 23:31:00,
2013-04-03 19:36:00,22.5,15.5,30.01,SSE,165,9.0,9.0,74,0.00,CLR,FEW,0.01,0.0,WeatherDisplay:10.37,2013-04-03 23:36:00,
2013-04-03 19:41:00,22.5,15.8,30.01,ENE,64,3.5,3.5,75,0.00,CLR,FEW,0.01,0.0,WeatherDisplay:10.37,2013-04-03 23:41:00,
2013-04-03 19:46:00,22.4,15.7,30.01,WNW,300,10.4,10.4,75,0.00,CLR,FEW,0.01,0.0,WeatherDisplay:10.37,2013-04-03 23:46:00,
2013-04-03 19:52:00,22.4,16.0,30.03,NW,317,5.0,5.0,76,0.00,CLR,FEW,0.01,0.0,WeatherDisplay:10.37,2013-04-03 23:52:00,
2013-04-03 19:57:00,22.3,16.2,30.03,NW,319,6.0,6.0,77,0.00,CLR,FEW,0.01,0.0,WeatherDisplay:10.37,2013-04-03 23:57:00,
2013-04-03 20:02:00,22.3,16.5,30.03,NNW,329,6.9,6.9,78,0.00,OVC,FEW,0.01,0.0,WeatherDisplay:10.37,2013-04-04 00:02:00,
2013-04-03 20:07:00,22.2,16.4,30.03,SSW,212,5.0,5.0,78,0.00,OVC,FEW,0.01,0.0,WeatherDisplay:10.37,2013-04-04 00:07:00,
2013-04-03 20:12:00,22.1,16.9,30.04,East,82,3.5,3.5,80,0.00,OVC,FEW,0.01,0.0,WeatherDisplay:10.37,2013-04-04 00:12:00,
2013-04-03 20:18:00,22.0,17.1,30.05,NNE,19,5.0,5.0,81,0.00,OVC,FEW,0.01,0.0,WeatherDisplay:10.37,2013-04-04 00:18:00,
2013-04-03 20:23:00,21.9,17.2,30.04,ENE,69,3.5,3.5,82,0.00,OVC,FEW,0.01,0.0,WeatherDisplay:10.37,2013-04-04 00:23:00,
2013-04-03 20:28:00,21.7,17.6,30.05,WNW,302,1.2,1.2,84,0.00,OVC,FEW,0.01,0.0,WeatherDisplay:10.37,2013-04-04 00:28:00,
2013-04-03 20:33:00,21.6,17.5,30.04,NW,308,5.0,5.0,84,0.00,OVC,FEW,0.01,0.0,WeatherDisplay:10.37,2013-04-04 00:33:00,
2013-04-03 20:38:00,21.5,17.7,30.05,SSE,157,3.5,3.5,85,0.00,OVC,FEW,0.01,0.0,WeatherDisplay:10.37,2013-04-04 00:38:00,
2013-04-03 20:43:00,21.4,17.9,30.05,NNE,30,5.0,5.0,86,0.00,OVC,FEW,0.01,0.0,WeatherDisplay:10.37,2013-04-04 00:43:00,
2013-04-03 20:48:00,21.4,17.9,30.06,NE,54,3.5,3.5,86,0.00,OVC,FEW,0.01,0.0,WeatherDisplay:10.37,2013-04-04 00:48:00,
2013-04-03 20:53:00,21.4,17.9,30.05,ESE,110,3.5,3.5,86,0.00,OVC,FEW,0.01,0.0,WeatherDisplay:10.37,2013-04-04 00:53:00,
2013-04-03 20:58:00,21.4,17.6,30.06,SSW,199,14.0,14.0,85,0.00,OVC,FEW,0.01,0.0,WeatherDisplay:10.37,2013-04-04 00:58:00,
2013-04-03 21:03:00,21.4,17.6,30.06,WSW,241,6.9,6.9,85,0.00,OVC,FEW,0.01,0.0,WeatherDisplay:10.37,2013-04-04 01:03:00,
2013-04-03 21:08:00,21.4,17.3,30.06,SW,236,3.5,3.5,84,0.00,OVC,FEW,0.01,0.0,WeatherDisplay:10.37,2013-04-04 01:08:00,
2013-04-03 21:13:00,21.5,17.4,30.07,SW,234,3.0,3.0,84,0.00,OVC,FEW,0.01,0.0,WeatherDisplay:10.37,2013-04-04 01:13:00,
2013-04-03 21:18:00,21.5,17.1,30.07,South,178,4.0,4.0,83,0.00,OVC,FEW,0.01,0.0,WeatherDisplay:10.37,2013-04-04 01:18:00,
2013-04-03 21:23:00,21.7,16.8,30.07,South,173,4.6,4.6,81,0.00,OVC,FEW,0.01,0.0,WeatherDisplay:10.37,2013-04-04 01:23:00,
2013-04-03 21:28:00,21.9,16.7,30.07,SSE,157,3.5,3.5,80,0.00,OVC,FEW,0.01,0.0,WeatherDisplay:10.37,2013-04-04 01:28:00,
2013-04-03 21:33:00,22.1,16.3,30.07,East,82,9.0,9.0,78,0.00,OVC,FEW,0.01,0.0,WeatherDisplay:10.37,2013-04-04 01:33:00,
2013-04-03 21:38:00,22.3,15.9,30.07,East,84,4.6,4.6,76,0.00,OVC,FEW,0.01,0.0,WeatherDisplay:10.37,2013-04-04 01:38:00,
2013-04-03 21:43:00,22.4,15.4,30.07,SE,132,3.5,3.5,74,0.00,OVC,FEW,0.01,0.0,WeatherDisplay:10.37,2013-04-04 01:43:00,
2013-04-03 21:48:00,22.6,15.2,30.07,WSW,247,16.1,16.1,73,0.00,OVC,FEW,0.01,0.0,WeatherDisplay:10.37,2013-04-04 01:48:00,
2013-04-03 21:53:00,22.6,15.2,30.07,South,181,7.0,7.0,73,0.00,OVC,FEW,0.01,0.0,WeatherDisplay:10.37,2013-04-04 01:53:00,
2013-04-03 21:58:00,22.6,15.2,30.07,NW,323,7.0,7.0,73,0.00,OVC,FEW,0.01,0.0,WeatherDisplay:10.37,2013-04-04 01:58:00,
2013-04-03 22:03:00,22.5,15.1,30.08,SSE,161,11.5,11.5,73,0.00,OVC,FEW,0.01,0.0,WeatherDisplay:10.37,2013-04-04 02:03:00,
2013-04-03 22:08:00,22.5,15.1,30.08,East,95,14.0,14.0,73,0.00,OVC,FEW,0.01,0.0,WeatherDisplay:10.37,2013-04-04 02:08:00,
2013-04-03 22:13:00,22.5,15.1,30.08,SW,231,4.0,4.0,73,0.00,OVC,FEW,0.01,0.0,WeatherDisplay:10.37,2013-04-04 02:13:00,
2013-04-03 22:18:00,22.5,15.1,30.08,NNW,329,16.1,16.1,73,0.00,OVC,FEW,0.01,0.0,WeatherDisplay:10.37,2013-04-04 02:18:00,
2013-04-03 22:23:00,22.4,15.1,30.09,SW,225,4.6,4.6,73,0.00,OVC,FEW,0.01,0.0,WeatherDisplay:10.37,2013-04-04 02:23:00,
2013-04-03 22:28:00,22.5,15.1,30.08,NNW,340,2.3,2.3,73,0.00,OVC,FEW,0.01,0.0,WeatherDisplay:10.37,2013-04-04 02:28:00,
2013-04-03 22:33:00,22.4,15.1,30.08,NE,46,6.9,6.9,73,0.00,OVC,FEW,0.01,0.0,WeatherDisplay:10.37,2013-04-04 02:33:00,
2013-04-03 22:38:00,22.4,14.7,30.08,NNE,33,6.0,6.0,72,0.00,OVC,FEW,0.01,0.0,WeatherDisplay:10.37,2013-04-04 02:38:00,
2013-04-03 22:43:00,22.3,14.6,30.09,SW,225,5.0,5.0,72,0.00,OVC,FEW,0.01,0.0,WeatherDisplay:10.37,2013-04-04 02:43:00,
2013-04-03 22:48:00,22.3,14.6,30.09,ESE,114,3.5,3.5,72,0.00,OVC,FEW,0.01,0.0,WeatherDisplay:10.37,2013-04-04 02:48:00,
2013-04-03 22:53:00,22.3,14.3,30.09,SSE,165,6.0,6.0,71,0.00,OVC,FEW,0.01,0.0,WeatherDisplay:10.37,2013-04-04 02:53:00,
2013-04-03 22:58:00,22.2,14.5,30.10,NNW,345,6.0,6.0,72,0.00,OVC,FEW,0.01,0.0,WeatherDisplay:10.37,2013-04-04 02:58:00,
2013-04-03 23:03:00,22.2,14.2,30.09,NE,38,7.0,7.0,71,0.00,OVC,FEW,0.01,0.0,WeatherDisplay:10.37,2013-04-04 03:03:00,
2013-04-03 23:08:00,22.1,14.1,30.09,WSW,252,10.0,10.0,71,0.00,OVC,FEW,0.01,0.0,WeatherDisplay:10.37,2013-04-04 03:08:00,
2013-04-03 23:14:00,22.1,14.1,30.09,South,189,12.0,12.0,71,0.00,OVC,FEW,0.01,0.0,WeatherDisplay:10.37,2013-04-04 03:14:00,
2013-04-03 23:19:00,22.1,14.1,30.10,SSW,202,4.0,4.0,71,0.00,OVC,FEW,0.01,0.0,WeatherDisplay:10.37,2013-04-04 03:19:00,
2013-04-03 23:25:00,22.0,14.0,30.09,ESE,113,3.5,3.5,71,0.00,OVC,FEW,0.01,0.0,WeatherDisplay:10.37,2013-04-04 03:25:00,
2013-04-03 23:30:00,21.9,13.9,30.10,SSW,206,4.0,4.0,71,0.00,OVC,FEW,0.01,0.0,WeatherDisplay:10.37,2013-04-04 03:30:00,
2013-04-03 23:35:00,21.9,13.9,30.10,SSW,200,4.0,4.0,71,0.00,OVC,FEW,0.01,0.0,WeatherDisplay:10.37,2013-04-04 03:35:00,
2013-04-03 23:40:00,21.8,13.8,30.10,WSW,240,6.0,6.0,71,0.00,OVC,FEW,0.01,0.0,WeatherDisplay:10.37,2013-04-04 03:40:00,
2013-04-03 23:45:00,21.7,13.7,30.10,SSW,206,5.8,5.8,71,0.00,OVC,FEW,0.01,0.0,WeatherDisplay:10.37,2013-04-04 03:45:00,
2013-04-03 23:50:00,21.6,13.6,30.10,WSW,247,3.5,3.5,71,0.00,OVC,FEW,0.01,0.0,WeatherDisplay:10.37,2013-04-04 03:50:00,
2013-04-03 23:55:00,21.6,13.6,30.10,SE,133,7.0,7.0,71,0.00,OVC,FEW,0.01,0.0,WeatherDisplay:10.37,2013-04-04 03:55:00,